Terminal Aerodrome Forecast
Issued by NWS

Home | Current Version | Previous Version | Text Only | Print | Product List | Glossary On
Versions: 1 2 3 4 5 6 7 8 9 10 11 12 13 14 15 16 17 18 19 20
000
FTUS42 KTBW 252300 RRA
TAFPGD
TAF
KPGD 252347Z 2600/2624 19012G20KT P6SM VCTS SCT025CB BKN080
      TEMPO 2602/2606 VRB15G25KT 2SM TSRA BKN007CB
     FM260800 26011G18KT 5SM -RA BR BKN007 OVC020
     FM261200 34017G27KT 6SM -RA BR SCT007 BKN015 OVC030
     FM261800 36011G18KT P6SM FEW020 BKN250=

USA.gov is the U.S. government's official web portal to all federal, state and local government web resources and services.